LSZQ weather

Bressaucourt Airport
Bressaucourt, Canton of Jura, Switzerland

Public forecast

Using degrees Celsius for public forecast. Weather courtesy of forecast.io.

METAR (pilot weather report)

Closest report is Grenchen Airport, 20.3 nm (37.5 km) SE. Retrieved 2019/07/21 06:20 UTC (19 minutes ago):

LSZG 210620Z 26002KT 9999 FEW010 SCT060 20/19 Q1022 NOSIG

TAF (pilot weather forecast)

Closest forecast is EuroAirport Basel-Mulhouse-Freiburg Airport, 23.5 nm (43.5 km) ENE. Retrieved 2019/07/21 06:21 UTC (18 minutes ago):

TAF LFSB 210500Z 2106/2206 26006KT 9999 FEW020 FEW030TCU BKN060 PROB40 TEMPO 2106/2107 -SHRA BECMG 2112/2114 SCT050 BECMG 2121/2123 VRB03KT